sensor_id;sensor_type;location;lat;lon;timestamp;pressure;altitude;pressure_sealevel;temperature;humidity
79544;BME280;68994;47.176;7.534;2023-09-19T00:02:17;96021.09;;;15.69;86.40
79544;BME280;68994;47.176;7.534;2023-09-19T00:04:43;96022.25;;;15.63;86.59
79544;BME280;68994;47.176;7.534;2023-09-19T00:07:10;96020.13;;;15.60;86.84
79544;BME280;68994;47.176;7.534;2023-09-19T00:09:37;96016.41;;;15.56;87.65
79544;BME280;68994;47.176;7.534;2023-09-19T00:12:05;96029.38;;;15.54;87.72
79544;BME280;68994;47.176;7.534;2023-09-19T00:14:31;96021.88;;;15.51;87.22
79544;BME280;68994;47.176;7.534;2023-09-19T00:17:01;96017.44;;;15.60;85.79
79544;BME280;68994;47.176;7.534;2023-09-19T00:19:31;96022.03;;;15.59;85.72
79544;BME280;68994;47.176;7.534;2023-09-19T00:21:57;96019.47;;;15.68;84.91
79544;BME280;68994;47.176;7.534;2023-09-19T00:24:24;96023.00;;;15.69;84.69
79544;BME280;68994;47.176;7.534;2023-09-19T00:26:53;96018.78;;;15.82;83.41
79544;BME280;68994;47.176;7.534;2023-09-19T00:29:20;96020.19;;;15.79;82.68
79544;BME280;68994;47.176;7.534;2023-09-19T00:31:48;96022.31;;;15.82;83.17
79544;BME280;68994;47.176;7.534;2023-09-19T00:34:16;96021.78;;;15.80;83.25
79544;BME280;68994;47.176;7.534;2023-09-19T00:36:43;96014.03;;;15.73;83.08
79544;BME280;68994;47.176;7.534;2023-09-19T00:39:10;96011.69;;;15.67;83.19
79544;BME280;68994;47.176;7.534;2023-09-19T00:41:37;96006.56;;;15.70;82.81
79544;BME280;68994;47.176;7.534;2023-09-19T00:44:03;96010.63;;;15.68;83.10
79544;BME280;68994;47.176;7.534;2023-09-19T00:46:31;96014.53;;;15.81;81.46
79544;BME280;68994;47.176;7.534;2023-09-19T00:48:58;96022.38;;;15.77;82.90
79544;BME280;68994;47.176;7.534;2023-09-19T00:51:26;96024.63;;;15.89;82.54
79544;BME280;68994;47.176;7.534;2023-09-19T00:53:53;96026.56;;;15.83;82.26
79544;BME280;68994;47.176;7.534;2023-09-19T00:56:20;96034.47;;;15.74;83.50
79544;BME280;68994;47.176;7.534;2023-09-19T00:58:48;96031.91;;;15.64;84.72
79544;BME280;68994;47.176;7.534;2023-09-19T01:01:15;96028.78;;;15.57;84.38
79544;BME280;68994;47.176;7.534;2023-09-19T01:03:42;96026.97;;;15.71;84.69
79544;BME280;68994;47.176;7.534;2023-09-19T01:06:10;96031.28;;;15.72;83.71
79544;BME280;68994;47.176;7.534;2023-09-19T01:08:38;96030.16;;;15.73;83.66
79544;BME280;68994;47.176;7.534;2023-09-19T01:11:10;96030.50;;;15.72;83.21
79544;BME280;68994;47.176;7.534;2023-09-19T01:13:47;96024.13;;;15.63;83.92
79544;BME280;68994;47.176;7.534;2023-09-19T01:16:19;96028.88;;;15.71;83.73
79544;BME280;68994;47.176;7.534;2023-09-19T01:18:58;96028.16;;;15.65;83.68
79544;BME280;68994;47.176;7.534;2023-09-19T01:21:32;96040.50;;;15.66;83.79
79544;BME280;68994;47.176;7.534;2023-09-19T01:24:22;96041.59;;;15.65;84.10
79544;BME280;68994;47.176;7.534;2023-09-19T01:27:06;96037.00;;;15.66;84.06
79544;BME280;68994;47.176;7.534;2023-09-19T01:29:42;96035.13;;;15.66;83.53
79544;BME280;68994;47.176;7.534;2023-09-19T01:32:16;96046.88;;;15.75;82.69
79544;BME280;68994;47.176;7.534;2023-09-19T01:34:47;96045.69;;;15.82;82.33
79544;BME280;68994;47.176;7.534;2023-09-19T01:37:15;96037.22;;;15.69;83.31
79544;BME280;68994;47.176;7.534;2023-09-19T01:39:46;96038.56;;;15.72;82.90
79544;BME280;68994;47.176;7.534;2023-09-19T01:42:23;96030.53;;;15.67;83.25
79544;BME280;68994;47.176;7.534;2023-09-19T01:45:01;96035.34;;;15.70;82.76
79544;BME280;68994;47.176;7.534;2023-09-19T01:47:33;96043.34;;;15.75;83.18
79544;BME280;68994;47.176;7.534;2023-09-19T01:50:11;96049.06;;;15.68;83.38
79544;BME280;68994;47.176;7.534;2023-09-19T01:52:47;96054.28;;;15.59;83.48
79544;BME280;68994;47.176;7.534;2023-09-19T01:55:16;96052.47;;;15.55;83.99
79544;BME280;68994;47.176;7.534;2023-09-19T01:57:49;96051.09;;;15.57;83.74
79544;BME280;68994;47.176;7.534;2023-09-19T02:00:21;96055.69;;;15.57;83.55
79544;BME280;68994;47.176;7.534;2023-09-19T02:02:51;96039.63;;;15.52;84.79
79544;BME280;68994;47.176;7.534;2023-09-19T02:05:22;96042.59;;;15.50;84.48
79544;BME280;68994;47.176;7.534;2023-09-19T02:07:50;96041.84;;;15.45;84.66
79544;BME280;68994;47.176;7.534;2023-09-19T02:10:17;96045.09;;;15.42;85.15
79544;BME280;68994;47.176;7.534;2023-09-19T02:12:44;96047.09;;;15.55;83.62
79544;BME280;68994;47.176;7.534;2023-09-19T02:15:11;96047.34;;;15.58;83.98
79544;BME280;68994;47.176;7.534;2023-09-19T02:17:41;96051.91;;;15.58;83.53
79544;BME280;68994;47.176;7.534;2023-09-19T02:20:10;96036.63;;;15.53;84.25
79544;BME280;68994;47.176;7.534;2023-09-19T02:22:40;96050.38;;;15.52;82.96
79544;BME280;68994;47.176;7.534;2023-09-19T02:25:07;96049.34;;;15.48;84.02
79544;BME280;68994;47.176;7.534;2023-09-19T02:27:34;96056.91;;;15.46;84.61
79544;BME280;68994;47.176;7.534;2023-09-19T02:30:01;96060.09;;;15.48;84.32
79544;BME280;68994;47.176;7.534;2023-09-19T02:32:29;96060.72;;;15.39;84.66
79544;BME280;68994;47.176;7.534;2023-09-19T02:34:56;96051.75;;;15.68;82.12
79544;BME280;68994;47.176;7.534;2023-09-19T02:37:25;96053.28;;;15.55;82.92
79544;BME280;68994;47.176;7.534;2023-09-19T02:39:52;96051.91;;;15.58;81.81
79544;BME280;68994;47.176;7.534;2023-09-19T02:42:18;96058.38;;;15.57;81.88
79544;BME280;68994;47.176;7.534;2023-09-19T02:44:45;96052.53;;;15.50;83.34
79544;BME280;68994;47.176;7.534;2023-09-19T02:47:13;96053.06;;;15.52;83.36
79544;BME280;68994;47.176;7.534;2023-09-19T02:49:42;96054.72;;;15.48;83.01
79544;BME280;68994;47.176;7.534;2023-09-19T02:52:08;96041.47;;;15.51;82.54
79544;BME280;68994;47.176;7.534;2023-09-19T02:54:37;96055.16;;;15.55;82.72
79544;BME280;68994;47.176;7.534;2023-09-19T02:57:04;96052.09;;;15.43;82.76
79544;BME280;68994;47.176;7.534;2023-09-19T02:59:32;96049.91;;;15.45;82.73
79544;BME280;68994;47.176;7.534;2023-09-19T03:02:02;96055.78;;;15.47;82.93
79544;BME280;68994;47.176;7.534;2023-09-19T03:04:30;96057.75;;;15.41;82.86
79544;BME280;68994;47.176;7.534;2023-09-19T03:06:56;96058.47;;;15.47;82.31
79544;BME280;68994;47.176;7.534;2023-09-19T03:09:25;96064.50;;;15.38;83.31
79544;BME280;68994;47.176;7.534;2023-09-19T03:11:54;96065.81;;;15.41;83.53
79544;BME280;68994;47.176;7.534;2023-09-19T03:14:20;96058.19;;;15.48;83.48
79544;BME280;68994;47.176;7.534;2023-09-19T03:16:48;96068.72;;;15.45;84.10
79544;BME280;68994;47.176;7.534;2023-09-19T03:19:14;96071.56;;;15.53;83.66
79544;BME280;68994;47.176;7.534;2023-09-19T03:21:41;96078.34;;;15.51;84.27
79544;BME280;68994;47.176;7.534;2023-09-19T03:24:08;96068.06;;;15.34;85.24
79544;BME280;68994;47.176;7.534;2023-09-19T03:26:34;96081.38;;;15.44;84.51
79544;BME280;68994;47.176;7.534;2023-09-19T03:29:04;96072.38;;;15.30;86.50
79544;BME280;68994;47.176;7.534;2023-09-19T03:31:33;96069.00;;;15.19;87.01
79544;BME280;68994;47.176;7.534;2023-09-19T03:34:02;96085.81;;;15.06;87.97
79544;BME280;68994;47.176;7.534;2023-09-19T03:36:29;96065.66;;;15.03;87.92
79544;BME280;68994;47.176;7.534;2023-09-19T03:38:56;96074.66;;;14.93;88.19
79544;BME280;68994;47.176;7.534;2023-09-19T03:41:22;96067.63;;;14.97;87.79
79544;BME280;68994;47.176;7.534;2023-09-19T03:43:49;96071.34;;;15.01;88.13
79544;BME280;68994;47.176;7.534;2023-09-19T03:46:17;96068.28;;;15.13;86.79
79544;BME280;68994;47.176;7.534;2023-09-19T03:48:43;96071.75;;;15.14;86.73
79544;BME280;68994;47.176;7.534;2023-09-19T03:51:10;96067.47;;;15.13;86.91
79544;BME280;68994;47.176;7.534;2023-09-19T03:53:37;96076.03;;;15.15;86.95
79544;BME280;68994;47.176;7.534;2023-09-19T03:56:03;96070.66;;;15.15;87.60
79544;BME280;68994;47.176;7.534;2023-09-19T03:58:30;96070.66;;;15.15;87.93
79544;BME280;68994;47.176;7.534;2023-09-19T04:00:57;96073.66;;;15.13;87.61
79544;BME280;68994;47.176;7.534;2023-09-19T04:03:25;96063.47;;;15.10;88.05
79544;BME280;68994;47.176;7.534;2023-09-19T04:06:00;96057.28;;;15.10;87.98
79544;BME280;68994;47.176;7.534;2023-09-19T04:08:26;96058.09;;;15.10;88.42
79544;BME280;68994;47.176;7.534;2023-09-19T04:10:53;96060.50;;;15.12;88.04
79544;BME280;68994;47.176;7.534;2023-09-19T04:13:19;96063.19;;;15.12;88.03
79544;BME280;68994;47.176;7.534;2023-09-19T04:15:46;96060.56;;;15.07;88.21
79544;BME280;68994;47.176;7.534;2023-09-19T04:18:13;96066.72;;;15.07;88.83
79544;BME280;68994;47.176;7.534;2023-09-19T04:20:41;96066.22;;;15.05;89.26
79544;BME280;68994;47.176;7.534;2023-09-19T04:23:07;96073.41;;;15.10;88.84
79544;BME280;68994;47.176;7.534;2023-09-19T04:25:34;96065.06;;;15.11;89.31
79544;BME280;68994;47.176;7.534;2023-09-19T04:28:00;96064.25;;;15.11;88.88
79544;BME280;68994;47.176;7.534;2023-09-19T04:30:28;96065.06;;;15.11;88.97
79544;BME280;68994;47.176;7.534;2023-09-19T04:32:55;96061.06;;;15.09;88.33
79544;BME280;68994;47.176;7.534;2023-09-19T04:35:21;96074.50;;;15.09;88.16
79544;BME280;68994;47.176;7.534;2023-09-19T04:37:50;96063.97;;;15.12;88.52
79544;BME280;68994;47.176;7.534;2023-09-19T04:40:18;96072.78;;;15.18;87.88
79544;BME280;68994;47.176;7.534;2023-09-19T04:42:44;96061.22;;;15.42;86.70
79544;BME280;68994;47.176;7.534;2023-09-19T04:45:12;96066.72;;;15.31;86.91
79544;BME280;68994;47.176;7.534;2023-09-19T04:47:38;96075.41;;;15.23;88.08
79544;BME280;68994;47.176;7.534;2023-09-19T04:50:07;96062.56;;;15.20;87.89
79544;BME280;68994;47.176;7.534;2023-09-19T04:52:38;96079.78;;;15.19;88.28
79544;BME280;68994;47.176;7.534;2023-09-19T04:55:07;96079.78;;;15.19;88.00
79544;BME280;68994;47.176;7.534;2023-09-19T04:57:34;96088.41;;;15.16;87.84
79544;BME280;68994;47.176;7.534;2023-09-19T05:00:02;96089.78;;;15.13;88.95
79544;BME280;68994;47.176;7.534;2023-09-19T05:02:32;96086.78;;;15.15;87.86
79544;BME280;68994;47.176;7.534;2023-09-19T05:04:59;96094.56;;;15.16;88.72
79544;BME280;68994;47.176;7.534;2023-09-19T05:07:26;96096.91;;;15.23;88.50
79544;BME280;68994;47.176;7.534;2023-09-19T05:09:52;96096.25;;;15.36;86.72
79544;BME280;68994;47.176;7.534;2023-09-19T05:12:21;96093.88;;;15.30;87.70
79544;BME280;68994;47.176;7.534;2023-09-19T05:14:47;96107.53;;;15.38;86.61
79544;BME280;68994;47.176;7.534;2023-09-19T05:17:13;96106.31;;;15.26;87.07
79544;BME280;68994;47.176;7.534;2023-09-19T05:19:42;96107.72;;;15.18;87.96
79544;BME280;68994;47.176;7.534;2023-09-19T05:22:09;96106.97;;;15.12;88.93
79544;BME280;68994;47.176;7.534;2023-09-19T05:24:35;96106.69;;;15.14;88.03
79544;BME280;68994;47.176;7.534;2023-09-19T05:27:02;96111.78;;;15.15;89.02
79544;BME280;68994;47.176;7.534;2023-09-19T05:29:31;96110.97;;;15.15;88.86
79544;BME280;68994;47.176;7.534;2023-09-19T05:31:58;96111.97;;;15.24;87.67
79544;BME280;68994;47.176;7.534;2023-09-19T05:34:25;96124.06;;;15.27;88.04
79544;BME280;68994;47.176;7.534;2023-09-19T05:36:55;96121.72;;;15.15;88.73
79544;BME280;68994;47.176;7.534;2023-09-19T05:39:22;96119.38;;;15.08;89.19
79544;BME280;68994;47.176;7.534;2023-09-19T05:41:48;96128.28;;;15.03;89.75
79544;BME280;68994;47.176;7.534;2023-09-19T05:44:15;96133.41;;;15.05;89.97
79544;BME280;68994;47.176;7.534;2023-09-19T05:46:43;96141.19;;;15.07;89.44
79544;BME280;68994;47.176;7.534;2023-09-19T05:49:10;96138.53;;;15.01;89.69
79544;BME280;68994;47.176;7.534;2023-09-19T05:51:37;96138.78;;;15.05;89.71
79544;BME280;68994;47.176;7.534;2023-09-19T05:54:04;96141.22;;;15.01;90.03
79544;BME280;68994;47.176;7.534;2023-09-19T05:56:30;96154.84;;;15.10;89.40
79544;BME280;68994;47.176;7.534;2023-09-19T05:58:57;96143.88;;;15.07;89.16
79544;BME280;68994;47.176;7.534;2023-09-19T06:01:24;96145.97;;;15.10;89.63
79544;BME280;68994;47.176;7.534;2023-09-19T06:03:53;96153.47;;;15.13;89.35
79544;BME280;68994;47.176;7.534;2023-09-19T06:06:20;96147.28;;;15.12;89.13
79544;BME280;68994;47.176;7.534;2023-09-19T06:08:49;96149.47;;;15.10;89.72
79544;BME280;68994;47.176;7.534;2023-09-19T06:11:15;96150.22;;;15.16;89.83
79544;BME280;68994;47.176;7.534;2023-09-19T06:13:45;96159.06;;;15.16;89.97
79544;BME280;68994;47.176;7.534;2023-09-19T06:16:12;96155.78;;;15.25;89.04
79544;BME280;68994;47.176;7.534;2023-09-19T06:18:39;96167.34;;;15.25;89.39
79544;BME280;68994;47.176;7.534;2023-09-19T06:21:07;96162.53;;;15.22;89.26
79544;BME280;68994;47.176;7.534;2023-09-19T06:23:34;96164.13;;;15.23;88.87
79544;BME280;68994;47.176;7.534;2023-09-19T06:26:00;96154.47;;;15.22;88.98
79544;BME280;68994;47.176;7.534;2023-09-19T06:28:27;96161.72;;;15.21;89.37
79544;BME280;68994;47.176;7.534;2023-09-19T06:30:54;96157.16;;;15.22;88.79
79544;BME280;68994;47.176;7.534;2023-09-19T06:33:20;96156.31;;;15.27;88.77
79544;BME280;68994;47.176;7.534;2023-09-19T06:35:48;96164.38;;;15.27;88.84
79544;BME280;68994;47.176;7.534;2023-09-19T06:38:15;96168.94;;;15.26;89.31
79544;BME280;68994;47.176;7.534;2023-09-19T06:40:44;96169.44;;;15.28;88.78
79544;BME280;68994;47.176;7.534;2023-09-19T06:43:11;96160.81;;;15.31;88.16
79544;BME280;68994;47.176;7.534;2023-09-19T06:45:38;96161.06;;;15.35;88.60
79544;BME280;68994;47.176;7.534;2023-09-19T06:48:05;96166.16;;;15.36;88.52
79544;BME280;68994;47.176;7.534;2023-09-19T06:50:32;96168.00;;;15.41;88.48
79544;BME280;68994;47.176;7.534;2023-09-19T06:52:59;96164.56;;;15.35;88.48
79544;BME280;68994;47.176;7.534;2023-09-19T06:55:28;96176.84;;;15.42;89.23
79544;BME280;68994;47.176;7.534;2023-09-19T06:57:56;96169.88;;;15.40;88.53
79544;BME280;68994;47.176;7.534;2023-09-19T07:00:24;96171.19;;;15.43;88.72
79544;BME280;68994;47.176;7.534;2023-09-19T07:02:57;96174.47;;;15.40;90.03
79544;BME280;68994;47.176;7.534;2023-09-19T07:05:26;96180.09;;;15.44;89.57
79544;BME280;68994;47.176;7.534;2023-09-19T07:07:54;96175.16;;;15.51;88.26
79544;BME280;68994;47.176;7.534;2023-09-19T07:10:21;96172.47;;;15.51;88.98
79544;BME280;68994;47.176;7.534;2023-09-19T07:12:54;96178.63;;;15.51;88.69
79544;BME280;68994;47.176;7.534;2023-09-19T07:15:21;96182.84;;;15.63;88.78
79544;BME280;68994;47.176;7.534;2023-09-19T07:17:50;96178.72;;;15.70;87.84
79544;BME280;68994;47.176;7.534;2023-09-19T07:20:18;96176.25;;;15.79;87.35
79544;BME280;68994;47.176;7.534;2023-09-19T07:22:44;96179.03;;;15.93;86.33
79544;BME280;68994;47.176;7.534;2023-09-19T07:25:11;96190.25;;;16.00;87.06
79544;BME280;68994;47.176;7.534;2023-09-19T07:27:39;96192.72;;;16.21;86.08
79544;BME280;68994;47.176;7.534;2023-09-19T07:30:08;96188.06;;;16.26;85.30
79544;BME280;68994;47.176;7.534;2023-09-19T07:32:37;96192.22;;;16.38;84.54
79544;BME280;68994;47.176;7.534;2023-09-19T07:35:05;96188.06;;;16.45;85.01
79544;BME280;68994;47.176;7.534;2023-09-19T07:37:31;96197.97;;;16.50;83.97
79544;BME280;68994;47.176;7.534;2023-09-19T07:39:59;96194.63;;;16.58;84.81
79544;BME280;68994;47.176;7.534;2023-09-19T07:42:26;96208.03;;;16.63;83.12
79544;BME280;68994;47.176;7.534;2023-09-19T07:44:52;96208.16;;;16.72;82.49
79544;BME280;68994;47.176;7.534;2023-09-19T07:47:20;96210.44;;;16.65;83.27
79544;BME280;68994;47.176;7.534;2023-09-19T07:49:47;96215.81;;;16.65;83.35
79544;BME280;68994;47.176;7.534;2023-09-19T07:52:14;96209.63;;;16.64;84.12
79544;BME280;68994;47.176;7.534;2023-09-19T07:54:40;96211.28;;;16.60;82.61
79544;BME280;68994;47.176;7.534;2023-09-19T07:57:09;96217.25;;;16.57;83.65
79544;BME280;68994;47.176;7.534;2023-09-19T07:59:36;96218.31;;;16.61;83.98
79544;BME280;68994;47.176;7.534;2023-09-19T08:02:03;96214.59;;;16.76;83.48
79544;BME280;68994;47.176;7.534;2023-09-19T08:04:32;96215.09;;;16.78;84.16
79544;BME280;68994;47.176;7.534;2023-09-19T08:06:59;96219.13;;;16.81;83.80
79544;BME280;68994;47.176;7.534;2023-09-19T08:09:28;96219.16;;;16.76;83.82
79544;BME280;68994;47.176;7.534;2023-09-19T08:11:58;96211.97;;;16.71;83.14
79544;BME280;68994;47.176;7.534;2023-09-19T08:14:29;96223.75;;;16.75;84.14
79544;BME280;68994;47.176;7.534;2023-09-19T08:16:56;96223.97;;;16.79;83.09
79544;BME280;68994;47.176;7.534;2023-09-19T08:19:23;96218.25;;;16.85;82.19
79544;BME280;68994;47.176;7.534;2023-09-19T08:21:55;96224.19;;;16.82;82.26
79544;BME280;68994;47.176;7.534;2023-09-19T08:24:24;96213.88;;;16.90;82.50
79544;BME280;68994;47.176;7.534;2023-09-19T08:26:53;96224.34;;;17.10;81.35
79544;BME280;68994;47.176;7.534;2023-09-19T08:29:21;96215.47;;;17.42;80.37
79544;BME280;68994;47.176;7.534;2023-09-19T08:31:53;96219.34;;;17.83;78.34
79544;BME280;68994;47.176;7.534;2023-09-19T08:34:21;96207.28;;;18.08;76.18
79544;BME280;68994;47.176;7.534;2023-09-19T08:36:48;96212.69;;;18.22;74.96
79544;BME280;68994;47.176;7.534;2023-09-19T08:39:17;96216.56;;;18.30;75.77
79544;BME280;68994;47.176;7.534;2023-09-19T08:41:44;96206.31;;;18.54;74.99
79544;BME280;68994;47.176;7.534;2023-09-19T08:44:11;96223.63;;;18.67;74.61
79544;BME280;68994;47.176;7.534;2023-09-19T08:46:40;96212.28;;;19.16;73.21
79544;BME280;68994;47.176;7.534;2023-09-19T08:49:14;96214.00;;;19.34;72.05
79544;BME280;68994;47.176;7.534;2023-09-19T08:51:52;96214.41;;;19.05;73.11
79544;BME280;68994;47.176;7.534;2023-09-19T08:54:25;96216.69;;;18.89;72.16
79544;BME280;68994;47.176;7.534;2023-09-19T08:56:53;96218.78;;;19.15;70.03
79544;BME280;68994;47.176;7.534;2023-09-19T08:59:22;96223.94;;;19.25;71.68
79544;BME280;68994;47.176;7.534;2023-09-19T09:01:53;96220.47;;;19.78;70.42
79544;BME280;68994;47.176;7.534;2023-09-19T09:04:21;96216.72;;;21.77;63.83
79544;BME280;68994;47.176;7.534;2023-09-19T09:06:49;96210.13;;;23.60;57.17
79544;BME280;68994;47.176;7.534;2023-09-19T09:09:18;96213.72;;;24.84;53.76
79544;BME280;68994;47.176;7.534;2023-09-19T09:11:48;96207.00;;;25.34;51.39
79544;BME280;68994;47.176;7.534;2023-09-19T09:14:15;96205.81;;;24.05;53.39
79544;BME280;68994;47.176;7.534;2023-09-19T09:16:42;96207.81;;;23.17;56.11
79544;BME280;68994;47.176;7.534;2023-09-19T09:19:10;96204.78;;;23.51;54.93
79544;BME280;68994;47.176;7.534;2023-09-19T09:21:39;96203.63;;;23.86;53.92
79544;BME280;68994;47.176;7.534;2023-09-19T09:24:28;96210.75;;;23.78;53.68
79544;BME280;68994;47.176;7.534;2023-09-19T09:27:16;96212.09;;;23.39;55.02
79544;BME280;68994;47.176;7.534;2023-09-19T09:29:44;96205.59;;;23.31;54.65
79544;BME280;68994;47.176;7.534;2023-09-19T09:32:23;96206.41;;;23.65;53.67
79544;BME280;68994;47.176;7.534;2023-09-19T09:34:51;96201.91;;;25.21;52.26
79544;BME280;68994;47.176;7.534;2023-09-19T09:37:19;96188.19;;;25.05;50.09
79544;BME280;68994;47.176;7.534;2023-09-19T09:39:51;96202.00;;;24.84;49.25
79544;BME280;68994;47.176;7.534;2023-09-19T09:42:33;96196.47;;;24.06;51.24
79544;BME280;68994;47.176;7.534;2023-09-19T09:45:17;96195.88;;;22.88;53.86
79544;BME280;68994;47.176;7.534;2023-09-19T09:47:53;96190.16;;;21.91;56.57
79544;BME280;68994;47.176;7.534;2023-09-19T09:50:28;96205.28;;;21.36;58.42
79544;BME280;68994;47.176;7.534;2023-09-19T09:53:07;96195.94;;;20.90;59.84
79544;BME280;68994;47.176;7.534;2023-09-19T09:56:00;96202.06;;;20.47;60.59
79544;BME280;68994;47.176;7.534;2023-09-19T09:58:29;96194.41;;;20.40;61.36
79544;BME280;68994;47.176;7.534;2023-09-19T10:00:58;96189.47;;;20.42;60.41
79544;BME280;68994;47.176;7.534;2023-09-19T10:06:06;96196.16;;;21.58;59.47
79544;BME280;68994;47.176;7.534;2023-09-19T10:09:04;96193.88;;;22.16;57.86
79544;BME280;68994;47.176;7.534;2023-09-19T10:11:43;96190.56;;;22.11;57.15
79544;BME280;68994;47.176;7.534;2023-09-19T10:14:12;96182.94;;;21.95;58.42
79544;BME280;68994;47.176;7.534;2023-09-19T10:16:43;96191.09;;;21.95;57.25
79544;BME280;68994;47.176;7.534;2023-09-19T10:19:16;96187.53;;;22.03;54.50
79544;BME280;68994;47.176;7.534;2023-09-19T10:21:43;96190.03;;;22.47;54.82
79544;BME280;68994;47.176;7.534;2023-09-19T10:24:12;96180.31;;;22.88;54.56
79544;BME280;68994;47.176;7.534;2023-09-19T10:26:42;96186.06;;;23.75;52.97
79544;BME280;68994;47.176;7.534;2023-09-19T10:29:13;96184.66;;;24.63;51.61
79544;BME280;68994;47.176;7.534;2023-09-19T10:31:42;96188.94;;;23.78;51.48
79544;BME280;68994;47.176;7.534;2023-09-19T10:34:13;96189.88;;;22.94;53.96
79544;BME280;68994;47.176;7.534;2023-09-19T10:36:44;96190.69;;;22.14;57.09
79544;BME280;68994;47.176;7.534;2023-09-19T10:39:14;96191.25;;;22.37;57.54
79544;BME280;68994;47.176;7.534;2023-09-19T10:41:47;96182.31;;;22.58;57.76
79544;BME280;68994;47.176;7.534;2023-09-19T10:44:21;96190.16;;;23.23;55.47
79544;BME280;68994;47.176;7.534;2023-09-19T10:46:50;96186.84;;;24.08;56.49
79544;BME280;68994;47.176;7.534;2023-09-19T10:49:18;96178.34;;;26.36;47.84
79544;BME280;68994;47.176;7.534;2023-09-19T10:51:47;96175.13;;;27.44;42.13
79544;BME280;68994;47.176;7.534;2023-09-19T10:54:17;96179.00;;;27.86;45.57
79544;BME280;68994;47.176;7.534;2023-09-19T10:56:47;96186.50;;;26.68;43.68
79544;BME280;68994;47.176;7.534;2023-09-19T10:59:17;96181.47;;;27.48;43.22
79544;BME280;68994;47.176;7.534;2023-09-19T11:01:47;96174.69;;;28.08;43.40
79544;BME280;68994;47.176;7.534;2023-09-19T11:04:24;96164.91;;;29.96;39.64
79544;BME280;68994;47.176;7.534;2023-09-19T11:07:04;96166.50;;;30.45;33.97
79544;BME280;68994;47.176;7.534;2023-09-19T11:09:47;96166.06;;;30.43;35.32
79544;BME280;68994;47.176;7.534;2023-09-19T11:12:48;96163.56;;;28.50;38.40
79544;BME280;68994;47.176;7.534;2023-09-19T11:18:53;96163.91;;;27.72;38.83
79544;BME280;68994;47.176;7.534;2023-09-19T11:24:28;96155.84;;;29.17;36.01
79544;BME280;68994;47.176;7.534;2023-09-19T11:27:09;96149.28;;;29.66;36.38
79544;BME280;68994;47.176;7.534;2023-09-19T11:29:37;96150.53;;;30.76;38.75
79544;BME280;68994;47.176;7.534;2023-09-19T11:32:04;96149.28;;;31.54;30.81
79544;BME280;68994;47.176;7.534;2023-09-19T11:34:43;96146.56;;;31.94;32.69
79544;BME280;68994;47.176;7.534;2023-09-19T11:40:36;96140.25;;;31.57;30.71
79544;BME280;68994;47.176;7.534;2023-09-19T11:43:36;96148.44;;;31.50;29.68
79544;BME280;68994;47.176;7.534;2023-09-19T11:46:05;96137.81;;;29.98;32.96
79544;BME280;68994;47.176;7.534;2023-09-19T11:48:32;96146.78;;;27.79;38.14
79544;BME280;68994;47.176;7.534;2023-09-19T11:51:11;96130.72;;;28.27;35.13
79544;BME280;68994;47.176;7.534;2023-09-19T11:53:45;96132.78;;;28.91;33.41
79544;BME280;68994;47.176;7.534;2023-09-19T11:56:13;96133.91;;;29.58;34.39
79544;BME280;68994;47.176;7.534;2023-09-19T11:58:43;96124.31;;;29.78;32.17
79544;BME280;68994;47.176;7.534;2023-09-19T12:01:13;96123.19;;;29.87;33.16
79544;BME280;68994;47.176;7.534;2023-09-19T12:03:46;96125.47;;;29.77;32.80
79544;BME280;68994;47.176;7.534;2023-09-19T12:06:15;96129.00;;;29.03;34.10
79544;BME280;68994;47.176;7.534;2023-09-19T12:08:42;96120.38;;;29.04;36.84
79544;BME280;68994;47.176;7.534;2023-09-19T12:11:13;96111.63;;;29.70;36.61
79544;BME280;68994;47.176;7.534;2023-09-19T12:13:42;96111.84;;;29.92;31.63
79544;BME280;68994;47.176;7.534;2023-09-19T12:16:14;96119.53;;;29.75;37.54
79544;BME280;68994;47.176;7.534;2023-09-19T12:18:42;96107.41;;;30.36;36.09
79544;BME280;68994;47.176;7.534;2023-09-19T12:21:26;96102.09;;;30.68;34.06
79544;BME280;68994;47.176;7.534;2023-09-19T12:24:05;96105.41;;;31.02;32.57
79544;BME280;68994;47.176;7.534;2023-09-19T12:26:39;96104.53;;;30.87;34.09
79544;BME280;68994;47.176;7.534;2023-09-19T12:29:12;96099.41;;;30.86;32.24
79544;BME280;68994;47.176;7.534;2023-09-19T12:31:47;96100.69;;;30.33;30.92
79544;BME280;68994;47.176;7.534;2023-09-19T12:34:16;96103.78;;;30.21;35.53
79544;BME280;68994;47.176;7.534;2023-09-19T12:36:46;96097.59;;;30.38;31.53
79544;BME280;68994;47.176;7.534;2023-09-19T12:39:22;96093.13;;;30.15;30.11
79544;BME280;68994;47.176;7.534;2023-09-19T12:41:49;96093.56;;;29.73;36.62
79544;BME280;68994;47.176;7.534;2023-09-19T12:44:17;96080.13;;;29.60;38.27
79544;BME280;68994;47.176;7.534;2023-09-19T12:46:44;96084.06;;;28.88;35.90
79544;BME280;68994;47.176;7.534;2023-09-19T12:49:17;96085.84;;;28.43;33.09
79544;BME280;68994;47.176;7.534;2023-09-19T12:51:47;96085.59;;;28.55;35.93
79544;BME280;68994;47.176;7.534;2023-09-19T12:54:13;96081.22;;;28.50;33.59
79544;BME280;68994;47.176;7.534;2023-09-19T12:56:42;96087.72;;;28.65;32.61
79544;BME280;68994;47.176;7.534;2023-09-19T12:59:11;96065.69;;;28.58;36.95
79544;BME280;68994;47.176;7.534;2023-09-19T13:01:39;96072.47;;;28.68;34.01
79544;BME280;68994;47.176;7.534;2023-09-19T13:04:11;96070.53;;;28.42;34.42
79544;BME280;68994;47.176;7.534;2023-09-19T13:06:40;96075.53;;;28.33;35.40
79544;BME280;68994;47.176;7.534;2023-09-19T13:09:10;96061.81;;;28.06;33.90
79544;BME280;68994;47.176;7.534;2023-09-19T13:11:40;96064.19;;;27.57;33.67
79544;BME280;68994;47.176;7.534;2023-09-19T13:14:20;96061.88;;;28.09;42.00
79544;BME280;68994;47.176;7.534;2023-09-19T13:16:55;96060.66;;;28.37;37.30
79544;BME280;68994;47.176;7.534;2023-09-19T13:19:39;96040.63;;;28.63;37.13
79544;BME280;68994;47.176;7.534;2023-09-19T13:22:36;96036.47;;;29.14;38.83
79544;BME280;68994;47.176;7.534;2023-09-19T13:25:05;96040.69;;;29.42;33.34
79544;BME280;68994;47.176;7.534;2023-09-19T13:27:33;96036.41;;;29.45;31.43